Time;durP1;ratioP1;P1;durP2;ratioP2;P2;SDS_P1;SDS_P2;PMS_P1;PMS_P2;Temp;Humidity;BMP_temperature;BMP_pressure;BME280_temperature;BME280_humidity;BME280_pressure;Samples;Min_cycle;Max_cycle;Signal;HPM_P1;HPM_P2
2023/05/22 00:01:55;;;;;;;14.15;6.38;;;16.10;97.10;;;;;;4197491;28;20040;-53
2023/05/22 00:03:57;;;;;;;20.52;7.95;;;16.20;97.20;;;;;;4197829;28;20040;-53
2023/05/22 00:06:01;;;;;;;17.20;6.72;;;16.20;97.00;;;;;;4197535;28;20044;-52
2023/05/22 00:08:03;;;;;;;19.50;7.38;;;16.20;97.20;;;;;;4197102;28;20148;-53
2023/05/22 00:10:06;;;;;;;15.23;7.60;;;16.20;97.10;;;;;;4197662;28;20405;-53
2023/05/22 00:12:08;;;;;;;18.80;7.43;;;16.20;97.10;;;;;;4197796;28;20372;-56
2023/05/22 00:14:12;;;;;;;14.85;7.43;;;16.20;97.10;;;;;;4197728;28;20132;-55
2023/05/22 00:16:14;;;;;;;13.93;7.03;;;16.10;97.20;;;;;;4196583;28;20067;-55
2023/05/22 00:18:16;;;;;;;19.98;6.90;;;16.10;97.20;;;;;;4196798;28;20405;-58
2023/05/22 00:20:20;;;;;;;12.82;6.18;;;16.00;97.20;;;;;;4197696;28;20053;-58
2023/05/22 00:22:23;;;;;;;14.25;6.95;;;16.00;97.30;;;;;;4197798;28;20044;-58
2023/05/22 00:24:25;;;;;;;18.10;7.25;;;16.10;97.20;;;;;;4198133;28;20132;-54
2023/05/22 00:26:27;;;;;;;13.88;6.10;;;16.10;97.10;;;;;;4205526;28;20371;-53
2023/05/22 00:28:29;;;;;;;16.77;7.10;;;16.10;97.10;;;;;;4213043;28;20474;-56
2023/05/22 00:30:32;;;;;;;15.00;7.40;;;16.10;97.00;;;;;;4213575;28;20044;-56
2023/05/22 00:32:34;;;;;;;13.43;6.20;;;16.10;97.10;;;;;;4213918;28;20071;-56
2023/05/22 00:34:37;;;;;;;17.45;7.45;;;16.20;97.10;;;;;;4214061;28;20374;-60
2023/05/22 00:36:39;;;;;;;13.32;6.72;;;16.20;96.90;;;;;;4213387;28;20087;-55
2023/05/22 00:38:43;;;;;;;16.33;6.35;;;16.20;96.90;;;;;;4204442;28;20041;-53
2023/05/22 00:40:45;;;;;;;13.95;6.75;;;16.20;96.90;;;;;;4196473;28;20446;-54
2023/05/22 00:42:47;;;;;;;15.60;6.90;;;16.20;96.90;;;;;;4197074;28;20094;-54
2023/05/22 00:44:49;;;;;;;11.68;5.93;;;16.20;97.00;;;;;;4196785;28;20044;-54
2023/05/22 00:46:51;;;;;;;15.05;6.47;;;16.20;96.80;;;;;;4196176;28;20052;-59
2023/05/22 00:48:54;;;;;;;18.17;6.88;;;16.20;96.70;;;;;;4196614;28;20593;-55
2023/05/22 00:50:57;;;;;;;18.17;6.40;;;16.30;96.70;;;;;;4196804;28;20105;-56
2023/05/22 00:53:00;;;;;;;14.25;6.35;;;16.30;96.70;;;;;;4197061;28;20057;-56
2023/05/22 00:55:05;;;;;;;17.35;7.00;;;16.30;96.70;;;;;;4196734;28;20491;-55
2023/05/22 00:57:08;;;;;;;11.98;6.40;;;16.20;96.70;;;;;;4196049;28;20479;-54
2023/05/22 00:59:10;;;;;;;12.52;6.13;;;16.30;96.80;;;;;;4200033;28;20449;-53
2023/05/22 01:01:13;;;;;;;16.42;6.50;;;16.30;96.70;;;;;;4184571;28;20105;-59
2023/05/22 01:03:17;;;;;;;13.48;6.30;;;16.30;96.60;;;;;;4201055;28;20049;-54
2023/05/22 01:05:19;;;;;;;13.63;6.37;;;16.20;96.70;;;;;;4200434;28;20046;-54
2023/05/22 01:07:22;;;;;;;12.38;6.05;;;16.10;96.60;;;;;;4198987;28;20060;-57
2023/05/22 01:09:25;;;;;;;13.20;6.00;;;16.20;96.60;;;;;;4199446;28;20102;-54
2023/05/22 01:11:38;;;;;;;15.82;6.72;;;16.20;96.50;;;;;;4198999;28;20136;-53
2023/05/22 01:13:52;;;;;;;15.27;6.55;;;16.30;96.20;;;;;;4199952;28;20387;-56
2023/05/22 01:16:04;;;;;;;16.60;6.15;;;16.30;96.50;;;;;;4200142;28;20132;-56
2023/05/22 01:18:18;;;;;;;17.40;6.40;;;16.20;96.30;;;;;;4198658;28;20406;-58
2023/05/22 01:20:24;;;;;;;10.43;5.77;;;16.20;96.30;;;;;;4200091;28;20380;-56
2023/05/22 01:22:41;;;;;;;13.95;5.72;;;16.20;96.30;;;;;;4200022;28;20942;-54
2023/05/22 01:24:59;;;;;;;13.93;5.57;;;16.30;96.40;;;;;;4199709;28;20832;-53
2023/05/22 01:27:27;;;;;;;16.08;6.65;;;16.20;96.30;;;;;;4211907;28;20101;-54
2023/05/22 01:29:46;;;;;;;14.85;6.18;;;16.10;96.40;;;;;;4216359;28;20044;-56
2023/05/22 01:31:54;;;;;;;13.10;5.88;;;16.00;96.60;;;;;;4214868;28;20051;-56
2023/05/22 01:33:59;;;;;;;10.80;6.30;;;16.00;96.70;;;;;;4216522;28;20043;-55
2023/05/22 01:36:06;;;;;;;15.95;6.40;;;16.00;96.80;;;;;;4198966;28;20127;-53
2023/05/22 01:38:10;;;;;;;14.02;6.75;;;15.90;96.70;;;;;;4211883;28;20132;-54
2023/05/22 01:40:13;;;;;;;12.15;5.50;;;16.00;96.70;;;;;;4199180;28;20060;-54
2023/05/22 01:42:15;;;;;;;17.65;6.63;;;15.90;96.60;;;;;;4199582;28;20064;-57
2023/05/22 01:44:17;;;;;;;18.70;6.55;;;15.90;96.70;;;;;;4199303;28;20052;-56
2023/05/22 01:46:19;;;;;;;13.13;6.05;;;15.90;96.70;;;;;;4198232;28;20045;-56
2023/05/22 01:48:23;;;;;;;14.95;5.85;;;15.80;96.90;;;;;;4198544;28;20049;-54
2023/05/22 01:50:25;;;;;;;14.38;6.03;;;15.80;96.90;;;;;;4199453;28;20071;-54
2023/05/22 01:52:33;;;;;;;13.60;5.57;;;15.70;96.80;;;;;;4198940;28;20460;-54
2023/05/22 01:54:41;;;;;;;11.05;6.25;;;15.80;96.80;;;;;;4199321;28;20045;-54
2023/05/22 01:56:47;;;;;;;16.27;5.80;;;15.60;97.00;;;;;;4181639;28;20060;-53
2023/05/22 01:58:55;;;;;;;13.13;6.13;;;15.70;96.90;;;;;;4198206;28;20052;-54
2023/05/22 02:00:59;;;;;;;17.27;6.10;;;15.70;96.80;;;;;;4199211;28;20558;-54
2023/05/22 02:03:06;;;;;;;11.75;6.40;;;15.60;96.90;;;;;;4199369;28;20398;-54
2023/05/22 02:05:13;;;;;;;16.38;6.30;;;15.60;96.90;;;;;;4199343;28;20110;-54
2023/05/22 02:07:18;;;;;;;13.02;5.60;;;15.60;96.90;;;;;;4197609;28;20068;-53
2023/05/22 02:09:22;;;;;;;15.18;6.10;;;15.60;96.90;;;;;;4198547;28;20072;-54
2023/05/22 02:11:27;;;;;;;11.77;5.93;;;15.60;96.80;;;;;;4199052;28;20052;-53
2023/05/22 02:13:29;;;;;;;15.00;6.35;;;15.60;96.90;;;;;;4199186;28;20453;-53
2023/05/22 02:15:32;;;;;;;16.63;6.00;;;15.60;96.80;;;;;;4199009;28;20541;-54
2023/05/22 02:17:39;;;;;;;13.68;5.35;;;15.50;96.80;;;;;;4198116;28;20079;-53
2023/05/22 02:19:42;;;;;;;12.52;6.28;;;15.50;96.90;;;;;;4198710;28;20044;-54
2023/05/22 02:21:45;;;;;;;11.73;6.00;;;15.40;97.10;;;;;;4198385;28;20060;-53
2023/05/22 02:23:47;;;;;;;14.82;6.47;;;15.30;97.20;;;;;;4199155;28;20041;-53
2023/05/22 02:25:50;;;;;;;14.52;5.63;;;15.30;97.20;;;;;;4202085;28;20048;-55
2023/05/22 02:27:53;;;;;;;17.65;6.68;;;15.40;97.20;;;;;;4214562;28;20131;-54
2023/05/22 02:29:55;;;;;;;15.68;5.82;;;15.40;97.20;;;;;;4215490;28;20051;-54
2023/05/22 02:31:57;;;;;;;12.13;6.18;;;15.40;97.40;;;;;;4215881;28;20074;-54
2023/05/22 02:33:59;;;;;;;15.00;5.70;;;15.30;97.20;;;;;;4215732;28;20043;-54
2023/05/22 02:36:02;;;;;;;11.60;6.18;;;15.30;97.20;;;;;;4216856;28;20117;-56
2023/05/22 02:38:05;;;;;;;13.70;5.97;;;15.30;97.20;;;;;;4213099;28;20068;-56
2023/05/22 02:40:11;;;;;;;11.95;5.55;;;15.30;97.20;;;;;;4201192;28;20044;-58
2023/05/22 02:42:13;;;;;;;11.50;6.05;;;15.30;97.20;;;;;;4200830;28;20131;-57
2023/05/22 02:44:15;;;;;;;13.13;5.82;;;15.30;97.40;;;;;;4200643;28;20049;-56
2023/05/22 02:46:17;;;;;;;12.80;5.95;;;15.30;97.30;;;;;;4200355;28;20128;-59
2023/05/22 02:48:19;;;;;;;15.85;6.75;;;15.30;97.20;;;;;;4197692;28;20263;-54
2023/05/22 02:50:21;;;;;;;9.68;5.93;;;15.20;97.30;;;;;;4198246;28;20054;-54
2023/05/22 02:52:24;;;;;;;10.48;6.25;;;15.20;97.30;;;;;;4198665;28;20505;-54
2023/05/22 02:54:27;;;;;;;15.02;6.80;;;15.20;97.50;;;;;;4198427;28;20074;-54
2023/05/22 02:56:29;;;;;;;17.23;6.32;;;15.10;97.40;;;;;;4198293;28;20044;-54
2023/05/22 02:58:32;;;;;;;15.02;6.00;;;15.10;97.40;;;;;;4197182;28;20128;-55
2023/05/22 03:00:36;;;;;;;13.63;6.05;;;15.00;97.60;;;;;;4197170;28;20194;-54
2023/05/22 03:02:39;;;;;;;15.48;6.95;;;15.00;97.70;;;;;;4198290;28;20255;-54
2023/05/22 03:04:41;;;;;;;16.05;6.50;;;15.10;97.60;;;;;;4197716;28;20068;-57
2023/05/22 03:06:45;;;;;;;11.32;6.45;;;15.10;97.50;;;;;;4198047;28;20053;-57
2023/05/22 03:08:47;;;;;;;11.55;5.63;;;15.00;97.70;;;;;;4197202;28;20534;-57
2023/05/22 03:10:51;;;;;;;15.32;6.03;;;15.10;97.50;;;;;;4198206;28;20119;-57
2023/05/22 03:12:53;;;;;;;14.05;6.47;;;15.10;97.60;;;;;;4198063;28;20056;-58
2023/05/22 03:14:55;;;;;;;11.52;5.75;;;15.00;97.80;;;;;;4197862;28;20055;-57
2023/05/22 03:16:57;;;;;;;12.63;6.35;;;15.00;97.80;;;;;;4196771;28;20048;-56
2023/05/22 03:19:09;;;;;;;13.07;6.43;;;14.90;97.80;;;;;;4196609;28;20051;-54
2023/05/22 03:21:11;;;;;;;9.95;6.13;;;14.80;97.90;;;;;;4197534;28;20088;-55
2023/05/22 03:23:13;;;;;;;15.70;6.93;;;14.80;98.00;;;;;;4196577;28;20048;-54
2023/05/22 03:25:15;;;;;;;17.05;6.55;;;14.80;98.40;;;;;;4198058;28;20120;-53
2023/05/22 03:27:19;;;;;;;16.67;6.53;;;14.90;98.10;;;;;;4212556;28;20201;-54
2023/05/22 03:29:21;;;;;;;14.25;6.25;;;14.90;98.10;;;;;;4214263;28;20044;-54
2023/05/22 03:31:24;;;;;;;17.08;6.82;;;14.90;97.90;;;;;;4214584;28;20547;-54
2023/05/22 03:33:26;;;;;;;13.65;6.45;;;14.80;97.90;;;;;;4214142;28;20044;-54
2023/05/22 03:35:28;;;;;;;17.73;7.07;;;14.80;98.10;;;;;;4214166;28;20051;-54
2023/05/22 03:37:30;;;;;;;14.00;6.20;;;14.80;98.00;;;;;;4213686;28;20040;-55
2023/05/22 03:39:32;;;;;;;13.27;6.60;;;14.90;98.30;;;;;;4198680;28;20520;-54
2023/05/22 03:41:35;;;;;;;21.95;7.20;;;14.80;98.00;;;;;;4197461;28;20052;-54
2023/05/22 03:43:40;;;;;;;12.93;6.28;;;14.90;98.00;;;;;;4197693;28;20131;-54
2023/05/22 03:45:46;;;;;;;20.40;7.40;;;14.90;98.00;;;;;;4197512;28;20049;-54
2023/05/22 03:47:48;;;;;;;16.45;6.50;;;14.90;98.10;;;;;;4196664;28;20067;-53
2023/05/22 03:49:50;;;;;;;13.48;7.05;;;14.90;98.10;;;;;;4197017;28;20402;-56
2023/05/22 03:51:52;;;;;;;12.10;6.28;;;14.70;98.20;;;;;;4197635;28;20072;-57
2023/05/22 03:53:54;;;;;;;17.52;7.00;;;14.70;98.20;;;;;;4197344;28;20557;-55
2023/05/22 03:55:56;;;;;;;15.55;6.13;;;14.70;98.30;;;;;;4197404;28;20051;-56
2023/05/22 03:57:58;;;;;;;14.30;6.93;;;14.70;98.20;;;;;;4196515;28;20051;-53
2023/05/22 04:00:08;;;;;;;16.27;6.70;;;14.60;98.40;;;;;;4197555;28;20406;-54
2023/05/22 04:02:11;;;;;;;14.43;6.97;;;14.60;98.50;;;;;;4197088;28;20048;-53
2023/05/22 04:04:15;;;;;;;14.77;6.88;;;14.60;98.60;;;;;;4196877;28;20056;-54
2023/05/22 04:06:20;;;;;;;21.15;7.60;;;14.60;98.70;;;;;;4197324;28;20041;-53
2023/05/22 04:08:22;;;;;;;20.10;7.25;;;14.60;98.80;;;;;;4195870;28;20098;-54
2023/05/22 04:10:24;;;;;;;18.55;7.55;;;14.60;98.60;;;;;;4197424;28;20048;-53
2023/05/22 04:12:26;;;;;;;14.65;7.38;;;14.60;98.80;;;;;;4197388;28;20053;-57
2023/05/22 04:14:28;;;;;;;18.38;6.88;;;14.70;98.60;;;;;;4197402;28;20076;-53
2023/05/22 04:16:32;;;;;;;16.27;7.07;;;14.70;98.60;;;;;;4197322;28;20052;-53
2023/05/22 04:18:34;;;;;;;14.30;6.43;;;14.60;98.50;;;;;;4195956;28;20052;-54
2023/05/22 04:20:38;;;;;;;17.27;6.30;;;14.60;98.70;;;;;;4197204;28;20040;-56
2023/05/22 04:22:40;;;;;;;13.40;6.72;;;14.60;98.60;;;;;;4197259;28;20044;-56
2023/05/22 04:24:42;;;;;;;16.08;6.68;;;14.70;98.50;;;;;;4197096;28;20123;-56
2023/05/22 04:26:44;;;;;;;21.95;7.18;;;14.60;98.70;;;;;;4207668;28;20059;-57
2023/05/22 04:28:46;;;;;;;17.23;6.57;;;14.70;98.70;;;;;;4212539;28;20055;-56
2023/05/22 04:30:49;;;;;;;16.42;7.00;;;14.70;98.70;;;;;;4215525;28;20119;-56
2023/05/22 04:32:53;;;;;;;16.45;7.22;;;14.70;98.70;;;;;;4214416;28;20081;-54
2023/05/22 04:34:57;;;;;;;11.52;6.80;;;14.80;98.60;;;;;;4213800;28;20401;-56
2023/05/22 04:36:59;;;;;;;13.65;6.40;;;14.80;98.40;;;;;;4213689;28;20044;-57
2023/05/22 04:39:03;;;;;;;11.80;6.28;;;14.80;98.50;;;;;;4201384;28;20445;-57
2023/05/22 04:41:07;;;;;;;14.77;7.13;;;14.90;98.50;;;;;;4196916;28;20062;-58
2023/05/22 04:43:12;;;;;;;16.42;6.20;;;14.90;98.40;;;;;;4197269;28;20142;-57
2023/05/22 04:45:15;;;;;;;15.50;7.35;;;14.90;98.20;;;;;;4197032;28;20056;-57
2023/05/22 04:47:17;;;;;;;16.63;6.68;;;14.80;98.40;;;;;;4196576;28;20132;-57
2023/05/22 04:49:20;;;;;;;15.32;6.75;;;14.80;98.30;;;;;;4195728;28;20312;-57
2023/05/22 04:51:24;;;;;;;14.90;6.40;;;14.80;98.30;;;;;;4197003;28;20048;-56
2023/05/22 04:53:26;;;;;;;14.50;6.70;;;14.80;98.30;;;;;;4196675;28;20041;-56
2023/05/22 04:55:28;;;;;;;13.93;6.53;;;14.90;98.60;;;;;;4197287;28;20124;-56
2023/05/22 04:57:30;;;;;;;17.17;6.97;;;14.90;98.60;;;;;;4196780;28;20048;-56
2023/05/22 04:59:39;;;;;;;15.13;6.68;;;14.90;98.30;;;;;;4196019;28;20076;-57
2023/05/22 05:01:46;;;;;;;14.43;6.30;;;14.90;98.30;;;;;;4196264;28;20056;-57
2023/05/22 05:03:48;;;;;;;18.35;7.32;;;14.90;98.30;;;;;;4196818;28;20044;-55
2023/05/22 05:05:52;;;;;;;16.15;7.25;;;15.00;98.50;;;;;;4196659;28;20079;-56
2023/05/22 05:07:54;;;;;;;14.90;7.07;;;14.90;98.50;;;;;;4195479;28;20040;-56
2023/05/22 05:09:56;;;;;;;13.00;6.88;;;14.90;98.50;;;;;;4196313;28;20041;-56
2023/05/22 05:11:58;;;;;;;15.50;7.00;;;14.90;98.40;;;;;;4196863;28;20068;-56
2023/05/22 05:14:00;;;;;;;18.90;7.13;;;15.00;98.30;;;;;;4196840;28;20045;-56
2023/05/22 05:16:03;;;;;;;21.10;7.47;;;15.10;98.60;;;;;;4196252;28;20040;-56
2023/05/22 05:18:05;;;;;;;19.50;7.45;;;15.00;98.20;;;;;;4195714;28;20082;-53
2023/05/22 05:20:09;;;;;;;21.58;7.68;;;15.00;98.10;;;;;;4196540;28;20119;-57
2023/05/22 05:22:12;;;;;;;18.53;8.33;;;15.00;98.30;;;;;;4196687;28;20045;-57
2023/05/22 05:24:16;;;;;;;20.27;8.25;;;14.90;98.60;;;;;;4195148;28;20091;-56
2023/05/22 05:26:20;;;;;;;14.98;7.13;;;15.00;98.50;;;;;;4203762;28;20052;-57
2023/05/22 05:28:22;;;;;;;16.42;7.82;;;14.90;98.20;;;;;;4212610;28;20478;-56
2023/05/22 05:30:25;;;;;;;13.93;6.93;;;15.10;98.40;;;;;;4212867;28;20044;-55
2023/05/22 05:32:27;;;;;;;15.20;6.85;;;15.10;98.10;;;;;;4213441;28;20048;-55
2023/05/22 05:34:30;;;;;;;24.35;8.18;;;15.20;98.10;;;;;;4213048;28;20062;-55
2023/05/22 05:36:32;;;;;;;18.17;7.57;;;15.30;98.20;;;;;;4213260;28;20044;-56
2023/05/22 05:38:35;;;;;;;15.95;7.05;;;15.30;97.90;;;;;;4204824;28;20044;-52
2023/05/22 05:40:37;;;;;;;14.90;7.00;;;15.30;98.00;;;;;;4198305;28;20072;-54
2023/05/22 05:42:41;;;;;;;21.60;7.80;;;15.40;98.10;;;;;;4199705;28;20056;-56
2023/05/22 05:44:43;;;;;;;18.85;7.60;;;15.40;97.80;;;;;;4200816;28;20048;-58
2023/05/22 05:46:48;;;;;;;13.15;6.40;;;15.50;98.00;;;;;;4202351;28;20048;-58
2023/05/22 05:48:51;;;;;;;13.73;6.65;;;15.30;97.70;;;;;;4200352;28;20068;-56
2023/05/22 05:50:53;;;;;;;16.13;6.50;;;15.40;97.80;;;;;;4199923;28;20047;-56
2023/05/22 05:52:55;;;;;;;17.00;7.07;;;15.60;97.70;;;;;;4199699;28;20049;-56
2023/05/22 05:54:59;;;;;;;16.00;6.93;;;15.70;97.50;;;;;;4198014;28;20044;-53
2023/05/22 05:57:01;;;;;;;16.65;6.45;;;15.70;97.50;;;;;;4199219;28;20044;-53
2023/05/22 05:59:03;;;;;;;17.33;7.07;;;15.80;97.30;;;;;;4197766;28;20071;-55
2023/05/22 06:01:05;;;;;;;15.65;6.60;;;16.00;97.10;;;;;;4199484;28;20390;-60
2023/05/22 06:03:09;;;;;;;20.58;7.03;;;16.00;97.20;;;;;;4199482;28;20592;-55
2023/05/22 06:05:12;;;;;;;15.45;6.53;;;16.00;97.10;;;;;;4199099;28;20548;-56
2023/05/22 06:07:15;;;;;;;20.70;6.70;;;16.00;97.20;;;;;;4199076;28;20101;-56
2023/05/22 06:09:17;;;;;;;18.05;6.45;;;16.00;97.00;;;;;;4197760;28;20052;-56
2023/05/22 06:11:21;;;;;;;15.00;6.60;;;16.00;96.80;;;;;;4199644;28;20192;-58
2023/05/22 06:13:23;;;;;;;13.13;6.82;;;16.10;96.90;;;;;;4199071;28;20044;-56
2023/05/22 06:15:25;;;;;;;19.33;6.80;;;16.20;96.70;;;;;;4199878;28;20057;-69
2023/05/22 06:17:27;;;;;;;17.35;7.00;;;16.10;96.70;;;;;;4202430;28;20071;-56
2023/05/22 06:19:30;;;;;;;18.05;6.88;;;16.30;96.70;;;;;;4198882;28;20044;-56
2023/05/22 06:21:32;;;;;;;18.58;7.10;;;16.30;96.70;;;;;;4199456;28;20053;-56
2023/05/22 06:23:34;;;;;;;16.35;6.55;;;16.40;96.60;;;;;;4198907;28;20046;-56
2023/05/22 06:25:38;;;;;;;14.05;6.25;;;16.30;96.40;;;;;;4200188;28;20427;-56
2023/05/22 06:27:42;;;;;;;17.20;6.60;;;16.50;96.60;;;;;;4215496;28;20072;-59
2023/05/22 06:29:44;;;;;;;15.13;7.03;;;16.60;96.40;;;;;;4214236;28;20051;-56
2023/05/22 06:31:46;;;;;;;18.23;6.78;;;16.70;96.30;;;;;;4215465;28;20404;-56
2023/05/22 06:33:48;;;;;;;14.52;6.78;;;16.80;96.10;;;;;;4215223;28;20044;-56
2023/05/22 06:35:50;;;;;;;13.60;6.22;;;16.80;96.10;;;;;;4215493;28;20449;-56
2023/05/22 06:37:53;;;;;;;17.10;7.07;;;16.90;96.10;;;;;;4213817;28;20056;-56
2023/05/22 06:39:55;;;;;;;16.38;6.75;;;16.90;96.20;;;;;;4197878;28;20062;-56
2023/05/22 06:41:57;;;;;;;15.52;6.40;;;16.90;95.80;;;;;;4198032;28;20059;-56
2023/05/22 06:44:01;;;;;;;15.20;6.63;;;16.90;95.90;;;;;;4198625;28;20059;-54
2023/05/22 06:46:04;;;;;;;16.58;7.22;;;17.00;96.10;;;;;;4198446;28;20106;-53
2023/05/22 06:48:06;;;;;;;15.50;6.50;;;16.90;95.70;;;;;;4197432;28;20060;-53
2023/05/22 06:50:10;;;;;;;21.83;6.63;;;17.00;96.00;;;;;;4197196;28;20110;-56
2023/05/22 06:52:13;;;;;;;20.03;7.30;;;16.90;96.00;;;;;;4197491;28;20127;-56
2023/05/22 06:54:15;;;;;;;15.57;6.20;;;17.00;95.90;;;;;;4198441;28;20521;-56
2023/05/22 06:56:17;;;;;;;22.95;7.55;;;17.10;95.80;;;;;;4197170;28;20074;-56
2023/05/22 06:58:19;;;;;;;19.63;6.53;;;17.30;95.70;;;;;;4196866;28;20079;-57
2023/05/22 07:00:24;;;;;;;13.38;6.07;;;17.30;95.40;;;;;;4198424;28;20098;-53
2023/05/22 07:02:26;;;;;;;13.93;6.28;;;17.60;95.10;;;;;;4198660;28;20501;-53
2023/05/22 07:04:28;;;;;;;14.18;7.10;;;17.70;95.50;;;;;;4198109;28;20049;-53
2023/05/22 07:06:37;;;;;;;18.20;6.28;;;17.70;95.10;;;;;;4198237;28;20072;-54
2023/05/22 07:08:40;;;;;;;21.88;6.97;;;17.80;95.00;;;;;;4197297;28;20056;-53
2023/05/22 07:10:43;;;;;;;15.05;6.65;;;18.10;94.60;;;;;;4198244;28;20051;-54
2023/05/22 07:12:45;;;;;;;13.07;6.43;;;18.00;94.60;;;;;;4197905;28;20052;-53
2023/05/22 07:14:47;;;;;;;22.05;7.07;;;18.10;94.90;;;;;;4198165;28;20052;-54
2023/05/22 07:16:50;;;;;;;16.88;6.35;;;18.00;94.30;;;;;;4197948;28;20051;-54
2023/05/22 07:18:52;;;;;;;26.70;8.13;;;17.90;94.70;;;;;;4197192;28;20110;-54
2023/05/22 07:20:54;;;;;;;19.42;6.90;;;17.90;94.90;;;;;;4198102;28;20461;-55
2023/05/22 07:22:57;;;;;;;18.17;6.85;;;18.20;94.40;;;;;;4198040;28;20135;-55
2023/05/22 07:24:59;;;;;;;14.38;6.65;;;18.00;94.50;;;;;;4197940;28;20128;-55
2023/05/22 07:27:03;;;;;;;18.45;6.45;;;18.20;94.60;;;;;;4210702;28;20054;-53
2023/05/22 07:29:05;;;;;;;17.95;6.30;;;18.30;94.70;;;;;;4213996;28;20075;-55
2023/05/22 07:31:07;;;;;;;12.13;5.47;;;18.30;94.30;;;;;;4215056;28;20044;-55
2023/05/22 07:33:11;;;;;;;18.23;6.60;;;18.40;94.10;;;;;;4214565;28;20044;-55
2023/05/22 07:35:13;;;;;;;23.55;7.68;;;18.60;94.10;;;;;;4214614;28;20081;-55
2023/05/22 07:37:15;;;;;;;24.35;6.85;;;18.90;93.90;;;;;;4214593;28;20040;-54
2023/05/22 07:39:17;;;;;;;17.45;6.15;;;18.70;93.70;;;;;;4199899;28;20144;-54
2023/05/22 07:41:20;;;;;;;15.93;6.63;;;18.80;94.10;;;;;;4197541;28;20075;-54
2023/05/22 07:43:22;;;;;;;27.70;6.95;;;19.00;93.70;;;;;;4197709;28;20048;-54
2023/05/22 07:45:25;;;;;;;19.48;7.10;;;19.20;93.30;;;;;;4197752;28;20487;-54
2023/05/22 07:47:27;;;;;;;19.25;6.55;;;19.00;93.30;;;;;;4197567;28;20049;-53
2023/05/22 07:49:31;;;;;;;15.48;5.80;;;19.20;93.30;;;;;;4196106;28;20044;-52
2023/05/22 07:51:33;;;;;;;18.42;7.05;;;19.40;93.20;;;;;;4197289;28;20078;-55
2023/05/22 07:53:35;;;;;;;15.20;7.03;;;19.60;93.40;;;;;;4197474;28;20469;-52
2023/05/22 07:55:38;;;;;;;24.35;7.25;;;19.80;93.00;;;;;;4197185;28;20044;-55
2023/05/22 07:57:42;;;;;;;14.07;6.25;;;20.10;92.60;;;;;;4197389;28;20044;-55
2023/05/22 07:59:44;;;;;;;15.77;6.18;;;20.20;92.20;;;;;;4196353;28;20048;-53
2023/05/22 08:01:46;;;;;;;15.80;6.82;;;20.10;92.30;;;;;;4197636;28;20048;-59
2023/05/22 08:03:48;;;;;;;18.50;6.75;;;20.30;92.30;;;;;;4197960;28;20064;-55
2023/05/22 08:05:53;;;;;;;15.25;6.05;;;20.50;92.30;;;;;;4197572;28;20044;-60
2023/05/22 08:07:55;;;;;;;19.98;5.93;;;20.40;91.90;;;;;;4197230;28;20056;-55
2023/05/22 08:09:57;;;;;;;19.45;6.32;;;20.50;92.00;;;;;;4195725;28;20048;-54
2023/05/22 08:11:59;;;;;;;21.80;7.25;;;20.40;91.80;;;;;;4197347;28;20451;-56
2023/05/22 08:14:02;;;;;;;27.17;7.00;;;20.50;92.10;;;;;;4197211;28;20068;-57
2023/05/22 08:16:05;;;;;;;15.02;5.50;;;20.60;91.80;;;;;;4197060;28;20166;-56
2023/05/22 08:18:07;;;;;;;26.05;7.03;;;20.50;91.60;;;;;;4195933;28;20090;-56
2023/05/22 08:20:10;;;;;;;16.33;6.22;;;20.70;91.90;;;;;;4194859;28;20052;-56
2023/05/22 08:22:14;;;;;;;22.92;6.85;;;20.80;91.60;;;;;;4197145;28;20052;-55
2023/05/22 08:24:16;;;;;;;23.02;6.95;;;20.90;91.50;;;;;;4195972;28;20474;-56
2023/05/22 08:26:19;;;;;;;16.95;6.95;;;21.00;91.30;;;;;;4204448;28;20493;-56
2023/05/22 08:28:21;;;;;;;23.30;7.07;;;20.90;91.30;;;;;;4213307;28;20066;-58
2023/05/22 08:30:23;;;;;;;18.23;6.72;;;20.90;91.20;;;;;;4213293;28;20048;-59
2023/05/22 08:32:25;;;;;;;18.08;6.53;;;20.80;91.40;;;;;;4214272;28;20109;-57
2023/05/22 08:34:31;;;;;;;27.90;7.97;;;20.90;91.30;;;;;;4215392;28;20044;-67
2023/05/22 08:36:34;;;;;;;21.90;7.20;;;20.90;91.30;;;;;;4215708;28;20102;-58
2023/05/22 08:38:38;;;;;;;15.23;6.15;;;20.80;91.40;;;;;;4206530;28;20121;-59
2023/05/22 08:40:43;;;;;;;24.25;6.70;;;20.80;91.40;;;;;;4199112;28;20040;-54
2023/05/22 08:42:50;;;;;;;21.17;6.85;;;20.90;91.40;;;;;;4198709;28;20044;-55
2023/05/22 08:44:54;;;;;;;15.50;6.38;;;20.80;91.50;;;;;;4198948;28;20479;-54
2023/05/22 08:46:58;;;;;;;12.77;7.03;;;20.80;91.30;;;;;;4198985;28;20132;-56
2023/05/22 08:49:02;;;;;;;;;;;20.70;91.30;;;;;;4198512;28;20088;-54
2023/05/22 08:51:04;;;;;;;17.98;6.90;;;20.50;91.70;;;;;;4198916;28;20298;-60
2023/05/22 08:53:10;;;;;;;14.10;5.55;;;20.60;92.10;;;;;;4198087;28;20053;-56
2023/05/22 08:55:13;;;;;;;13.52;6.82;;;20.80;92.00;;;;;;4197783;28;20048;-56
2023/05/22 08:57:16;;;;;;;17.70;6.78;;;20.90;91.40;;;;;;4197110;28;20048;-56
2023/05/22 08:59:19;;;;;;;15.82;6.88;;;20.80;91.50;;;;;;4195878;28;20056;-57
2023/05/22 09:01:22;;;;;;;20.23;6.63;;;20.90;91.50;;;;;;4196829;28;20486;-57
2023/05/22 09:03:31;;;;;;;18.60;7.38;;;20.90;91.80;;;;;;4196873;28;20045;-56
2023/05/22 09:05:35;;;;;;;17.33;6.97;;;20.90;91.50;;;;;;4197299;28;20045;-58
2023/05/22 09:07:39;;;;;;;18.30;6.90;;;20.60;91.50;;;;;;4197000;28;20160;-58
2023/05/22 09:09:41;;;;;;;18.15;6.68;;;20.60;92.20;;;;;;4195947;28;20048;-54
2023/05/22 09:11:45;;;;;;;14.07;6.65;;;20.70;91.80;;;;;;4197177;28;20045;-54
2023/05/22 09:13:48;;;;;;;13.40;5.13;;;20.60;91.70;;;;;;4197167;28;20490;-54
2023/05/22 09:15:50;;;;;;;15.57;7.65;;;20.70;92.10;;;;;;4197284;28;20458;-55
2023/05/22 09:17:52;;;;;;;21.27;7.65;;;20.90;92.00;;;;;;4196874;28;20482;-55
2023/05/22 09:19:58;;;;;;;18.50;6.82;;;20.90;91.80;;;;;;4198394;28;20128;-55
2023/05/22 09:22:02;;;;;;;25.92;7.47;;;21.00;91.90;;;;;;4199768;28;20068;-56
2023/05/22 09:24:06;;;;;;;22.10;8.00;;;21.20;92.00;;;;;;4199628;28;20052;-55
2023/05/22 09:26:09;;;;;;;18.90;7.20;;;21.20;91.40;;;;;;4205842;28;20044;-54
2023/05/22 09:28:12;;;;;;;20.80;7.20;;;21.20;91.40;;;;;;4216715;28;20052;-54
2023/05/22 09:30:16;;;;;;;20.92;8.48;;;21.20;91.80;;;;;;4215489;28;20075;-59
2023/05/22 09:32:19;;;;;;;13.70;6.15;;;21.30;91.50;;;;;;4216341;28;20052;-54
2023/05/22 09:34:27;;;;;;;20.70;8.98;;;21.30;91.70;;;;;;4216209;28;20040;-55
2023/05/22 09:36:31;;;;;;;22.60;7.75;;;21.60;91.70;;;;;;4215873;28;20151;-55
2023/05/22 09:38:34;;;;;;;15.98;7.25;;;21.60;91.50;;;;;;4208051;28;20119;-57
2023/05/22 09:40:37;;;;;;;17.10;7.35;;;21.60;91.40;;;;;;4199240;28;20076;-54
2023/05/22 09:42:46;;;;;;;16.83;7.43;;;21.60;91.30;;;;;;4199419;28;20061;-55
2023/05/22 09:44:50;;;;;;;19.35;7.70;;;21.70;91.60;;;;;;4198447;28;20467;-52
2023/05/22 09:46:53;;;;;;;11.82;6.13;;;21.80;91.50;;;;;;4199558;28;20045;-53
2023/05/22 09:48:55;;;;;;;21.80;7.35;;;21.90;91.40;;;;;;4198724;28;20132;-53
2023/05/22 09:50:59;;;;;;;19.80;7.60;;;22.00;91.10;;;;;;4198853;28;20083;-56
2023/05/22 09:53:02;;;;;;;15.20;6.70;;;22.10;91.20;;;;;;4199350;28;20074;-55
2023/05/22 09:55:06;;;;;;;15.63;6.53;;;22.20;91.00;;;;;;4198017;28;20051;-55
2023/05/22 09:57:12;;;;;;;16.75;6.55;;;22.30;91.00;;;;;;4199193;28;20154;-56
2023/05/22 09:59:21;;;;;;;13.90;7.65;;;22.50;90.90;;;;;;4198171;28;20439;-55
2023/05/22 10:01:25;;;;;;;14.13;6.70;;;22.50;90.80;;;;;;4199175;28;20124;-55
2023/05/22 10:03:30;;;;;;;16.00;6.78;;;22.50;91.00;;;;;;4199192;28;20056;-55
2023/05/22 10:05:32;;;;;;;13.75;7.75;;;22.50;90.80;;;;;;4198618;28;20045;-54
2023/05/22 10:07:39;;;;;;;18.95;8.25;;;22.60;90.70;;;;;;4199412;28;20045;-60
2023/05/22 10:09:43;;;;;;;13.90;6.85;;;22.60;90.50;;;;;;4198034;28;20102;-54
2023/05/22 10:11:46;;;;;;;19.88;7.53;;;22.60;90.90;;;;;;4199197;28;20131;-55
2023/05/22 10:13:49;;;;;;;19.67;8.23;;;22.60;90.50;;;;;;4199283;28;20509;-58
2023/05/22 10:15:53;;;;;;;14.63;6.70;;;22.70;90.60;;;;;;4199002;28;20051;-57
2023/05/22 10:17:57;;;;;;;20.10;8.20;;;22.70;90.80;;;;;;4198842;28;20476;-57
2023/05/22 10:20:00;;;;;;;17.55;7.43;;;22.70;90.40;;;;;;4197722;28;20055;-57
2023/05/22 10:22:03;;;;;;;17.10;6.40;;;22.60;90.40;;;;;;4198703;28;20086;-55
2023/05/22 10:24:06;;;;;;;16.73;6.50;;;22.60;90.60;;;;;;4199065;28;20049;-54
2023/05/22 10:26:09;;;;;;;17.95;6.90;;;22.80;90.90;;;;;;4204520;28;20047;-54
2023/05/22 10:28:20;;;;;;;24.70;8.40;;;22.80;90.70;;;;;;4215348;28;20452;-55
2023/05/22 10:30:30;;;;;;;17.35;8.30;;;22.90;90.50;;;;;;4214162;28;20448;-54
2023/05/22 10:32:39;;;;;;;19.58;8.60;;;22.90;90.60;;;;;;4215593;28;20048;-55
2023/05/22 10:34:50;;;;;;;17.20;7.82;;;22.80;90.60;;;;;;4215033;28;20044;-54
2023/05/22 10:37:10;;;;;;;13.38;6.97;;;22.80;90.50;;;;;;4215442;28;20353;-54